Time;durP1;ratioP1;P1;durP2;ratioP2;P2;SDS_P1;SDS_P2;PMS_P1;PMS_P2;Temp;Humidity;BMP_temperature;BMP_pressure;BME280_temperature;BME280_humidity;BME280_pressure;Samples;Min_cycle;Max_cycle;Signal;HPM_P1;HPM_P2
2022/03/18 00:01:35;;;;;;;;;106.33;89.67;;;;;1.50;87.71;101415.72;6278720;20;3690838;-47
2022/03/18 00:04:05;;;;;;;;;121.00;95.00;;;;;1.38;87.84;101418.31;6278604;20;3705531;-47
2022/03/18 00:06:35;;;;;;;;;111.50;85.50;;;;;1.33;87.61;101417.41;6280549;20;3597230;-49
2022/03/18 00:09:05;;;;;;;;;121.00;95.67;;;;;1.34;87.78;101419.19;6310077;20;3673169;-49
2022/03/18 00:11:35;;;;;;;;;107.33;90.00;;;;;1.33;88.09;101427.13;6279997;20;3694123;-49
2022/03/18 00:14:05;;;;;;;;;114.00;92.00;;;;;1.19;88.13;101427.94;6280402;20;3704392;-46
2022/03/18 00:16:35;;;;;;;;;110.33;94.00;;;;;1.08;88.99;101427.91;6310403;20;3677433;-47
2022/03/18 00:19:05;;;;;;;;;107.33;86.33;;;;;1.01;89.35;101430.50;6278969;20;3689815;-48
2022/03/18 00:21:34;;;;;;;;;103.67;87.00;;;;;1.00;89.15;101434.91;6280442;20;3683681;-51
2022/03/18 00:24:05;;;;;;;;;108.67;85.33;;;;;1.37;87.49;101435.09;6276208;20;3698153;-52
2022/03/18 00:26:35;;;;;;;;;106.00;86.33;;;;;1.30;87.14;101434.16;6280345;20;3697223;-50
2022/03/18 00:29:05;;;;;;;;;103.00;80.33;;;;;1.28;87.26;101437.69;6278227;20;3692970;-50
2022/03/18 00:31:34;;;;;;;;;107.33;89.00;;;;;1.09;88.25;101431.41;6281120;20;3689916;-50
2022/03/18 00:34:04;;;;;;;;;133.00;103.67;;;;;1.37;88.88;101440.38;6276590;20;3716893;-54
2022/03/18 00:36:34;;;;;;;;;104.67;82.33;;;;;0.15;87.32;101438.66;6278759;20;3684745;-50
2022/03/18 00:39:05;;;;;;;;;107.67;83.33;;;;;0.62;86.94;101443.44;6278461;20;3691007;-48
2022/03/18 00:41:35;;;;;;;;;106.33;80.33;;;;;0.75;85.91;101444.44;6279293;20;3688896;-53
2022/03/18 00:44:04;;;;;;;;;104.00;83.00;;;;;0.52;86.46;101446.91;6277167;20;2748171;-53
2022/03/18 00:46:35;;;;;;;;;107.00;86.33;;;;;0.98;84.96;101443.72;6278438;20;3698190;-50
2022/03/18 00:52:04;;;;;;;;;166.00;126.75;;;;;1.18;84.66;101438.50;6316521;20;3702506;-48
2022/03/18 00:54:39;;;;;;;;;131.75;108.00;;;;;0.67;85.13;101439.97;6316264;20;3714795;-49
2022/03/18 00:57:12;;;;;;;;;128.33;105.00;;;;;0.80;85.29;101452.41;6281060;20;3717967;-50
2022/03/18 00:59:42;;;;;;;;;108.00;92.33;;;;;0.78;85.41;101448.84;6284453;20;3687847;-48
2022/03/18 01:02:12;;;;;;;;;107.67;85.67;;;;;0.82;85.95;101453.31;6284170;20;3695072;-48
2022/03/18 01:04:42;;;;;;;;;109.33;88.33;;;;;1.14;84.55;101452.63;6279309;20;3703394;-49
2022/03/18 01:07:11;;;;;;;;;102.33;81.67;;;;;1.27;84.17;101449.16;6284790;20;3688788;-49
2022/03/18 01:09:41;;;;;;;;;104.00;83.00;;;;;1.38;83.04;101449.19;6281134;20;3688836;-48
2022/03/18 01:12:12;;;;;;;;;98.33;78.00;;;;;1.40;83.56;101450.97;6282499;20;3665882;-49
2022/03/18 01:14:42;;;;;;;;;100.67;80.33;;;;;1.18;83.55;101455.25;6315723;20;3678369;-51
2022/03/18 01:17:11;;;;;;;;;103.67;81.00;;;;;0.72;85.79;101454.09;6285795;20;3696120;-49
2022/03/18 01:19:41;;;;;;;;;103.33;82.00;;;;;0.95;86.08;101452.50;6281264;20;3697123;-49
2022/03/18 01:22:10;;;;;;;;;64.00;44.33;;;;;1.06;85.25;101455.22;6282902;20;3567038;-50
2022/03/18 01:24:40;;;;;;;;;102.33;77.67;;;;;0.96;86.08;101459.56;6316176;20;3690842;-48
2022/03/18 01:27:10;;;;;;;;;112.00;88.67;;;;;1.04;86.12;101457.84;6312987;20;3705415;-45
2022/03/18 01:29:39;;;;;;;;;100.00;76.50;;;;;1.36;85.25;101454.47;6284241;20;2858572;-44
2022/03/18 01:32:09;;;;;;;;;107.33;87.33;;;;;1.10;85.72;101457.84;6316082;20;3698171;-48
2022/03/18 01:34:39;;;;;;;;;98.67;74.33;;;;;1.34;84.77;101466.81;6284166;20;3676283;-45
2022/03/18 01:37:08;;;;;;;;;100.00;76.33;;;;;0.99;85.77;101475.44;6315206;20;3678371;-44
2022/03/18 01:39:38;;;;;;;;;104.00;82.33;;;;;1.18;85.05;101465.84;6314981;20;3673223;-44
2022/03/18 01:42:08;;;;;;;;;110.67;85.67;;;;;1.41;84.14;101476.56;6281184;20;3708718;-43
2022/03/18 01:44:44;;;;;;;;;104.33;84.67;;;;;0.86;85.48;101473.59;6281052;20;3695009;-46
2022/03/18 01:47:14;;;;;;;;;109.00;89.67;;;;;0.93;85.65;101470.13;6283616;20;3697179;-46
2022/03/18 01:49:44;;;;;;;;;107.33;87.33;;;;;1.10;85.51;101468.44;6284187;20;3700248;-46
2022/03/18 01:52:14;;;;;;;;;106.67;85.00;;;;;1.22;85.41;101466.75;6281033;20;3701444;-48
2022/03/18 01:54:44;;;;;;;;;107.67;83.33;;;;;1.22;85.00;101477.34;6283013;20;3684670;-49
2022/03/18 01:57:22;;;;;;;;;104.33;86.00;;;;;0.78;85.56;101468.25;6280789;20;3691910;-48
2022/03/18 01:59:53;;;;;;;;;115.33;95.33;;;;;0.81;86.59;101481.47;6277800;20;3691970;-47
2022/03/18 02:02:23;;;;;;;;;111.00;90.67;;;;;1.01;85.04;101473.69;6283251;20;3688817;-48
2022/03/18 02:04:54;;;;;;;;;116.67;91.33;;;;;0.41;86.80;101475.00;6279966;20;3694167;-49
2022/03/18 02:07:23;;;;;;;;;105.33;85.33;;;;;0.41;87.36;101481.16;6280792;20;3690856;-47
2022/03/18 02:09:53;;;;;;;;;111.33;94.33;;;;;0.41;87.11;101489.09;6279811;20;3687814;-52
2022/03/18 02:12:23;;;;;;;;;100.00;78.33;;;;;0.27;88.04;101476.63;6279290;20;3664870;-51
2022/03/18 02:14:53;;;;;;;;;113.67;93.33;;;;;0.25;88.37;101479.25;6315947;20;3697126;-49
2022/03/18 02:17:23;;;;;;;;;110.67;85.67;;;;;0.36;87.74;101484.63;6282531;20;3701327;-48
2022/03/18 02:19:52;;;;;;;;;110.67;87.00;;;;;1.10;85.23;101486.06;6281948;20;3701362;-49
2022/03/18 02:22:25;;;;;;;;;116.67;92.67;;;;;0.84;85.19;101483.25;6280301;20;3695072;-48
2022/03/18 02:24:56;;;;;;;;;112.00;93.00;;;;;0.61;86.15;101489.28;6280109;20;3661823;-49
2022/03/18 02:27:26;;;;;;;;;98.67;71.67;;;;;0.91;85.15;101493.00;6277521;20;3662718;-49
2022/03/18 02:29:55;;;;;;;;;111.00;90.33;;;;;0.82;85.35;101490.31;6311095;20;3701262;-46
2022/03/18 02:32:25;;;;;;;;;110.67;90.00;;;;;0.65;84.92;101490.16;6280836;20;3674555;-47
2022/03/18 02:34:55;;;;;;;;;116.33;95.67;;;;;0.55;85.00;101499.78;6280006;20;3695219;-47
2022/03/18 02:37:25;;;;;;;;;125.50;101.75;;;;;0.70;84.85;101503.44;6282843;20;3708613;-47
2022/03/18 02:39:59;;;;;;;;;114.67;100.00;;;;;0.81;84.14;101510.56;6279335;20;3703340;-45
2022/03/18 02:42:29;;;;;;;;;114.00;82.33;;;;;0.67;83.60;101513.97;6281257;20;3696207;-48
2022/03/18 02:45:00;;;;;;;;;119.33;93.33;;;;;0.32;84.80;101517.19;6282015;20;3690829;-47
2022/03/18 02:47:30;;;;;;;;;111.33;86.67;;;;;0.33;84.76;101514.56;6281793;20;3691901;-46
2022/03/18 02:50:00;;;;;;;;;108.00;92.33;;;;;0.01;85.48;101514.22;6279932;20;3672124;-47
2022/03/18 02:52:29;;;;;;;;;114.67;92.00;;;;;0.55;84.39;101523.56;6279982;20;3714791;-50
2022/03/18 02:54:59;;;;;;;;;115.67;92.00;;;;;0.88;83.64;101522.97;6282712;20;3705423;-49
2022/03/18 02:57:32;;;;;;;;;105.67;87.67;;;;;0.84;83.57;101528.22;6279478;20;3680512;-46
2022/03/18 03:00:02;;;;;;;;;131.00;108.00;;;;;0.47;84.37;101527.00;6276466;20;3722112;-47
2022/03/18 03:02:31;;;;;;;;;104.00;81.00;;;;;0.18;86.23;101527.59;6280416;20;3685665;-48
2022/03/18 03:08:12;;;;;;;;;106.00;89.00;;;;;0.91;83.67;101531.81;6279741;20;3693970;-48
2022/03/18 03:10:43;;;;;;;;;119.00;95.00;;;;;0.35;84.76;101523.38;6281394;20;3701531;-47
2022/03/18 03:13:13;;;;;;;;;109.67;85.00;;;;;0.66;84.28;101534.25;6282426;20;3684667;-48
2022/03/18 03:15:42;;;;;;;;;103.67;75.00;;;;;0.02;86.02;101533.59;6283406;20;3680494;-46
2022/03/18 03:18:12;;;;;;;;;111.33;90.67;;;;;0.14;86.38;101533.72;6314061;20;3697209;-47
2022/03/18 03:20:42;;;;;;;;;113.00;93.00;;;;;0.25;86.48;101537.38;6279446;20;3684631;-48
2022/03/18 03:23:12;;;;;;;;;102.67;77.67;;;;;-0.09;86.62;101541.38;6281771;20;3681582;-48
2022/03/18 03:25:42;;;;;;;;;112.00;87.33;;;;;0.19;86.06;101546.13;6313325;20;3705564;-50
2022/03/18 03:28:12;;;;;;;;;113.00;92.67;;;;;-0.03;85.50;101557.28;6281760;20;3696118;-47
2022/03/18 03:30:42;;;;;;;;;112.00;92.67;;;;;-0.31;86.77;101556.97;6276510;20;3695045;-47
2022/03/18 03:33:12;;;;;;;;;110.33;90.67;;;;;-0.17;87.41;101569.44;6281798;20;3698186;-47
2022/03/18 03:35:42;;;;;;;;;107.00;89.00;;;;;-0.05;85.87;101574.88;6278914;20;3683647;-48
2022/03/18 03:38:15;;;;;;;;;112.33;87.33;;;;;0.06;86.46;101573.25;6279850;20;3696208;-51
2022/03/18 03:40:46;;;;;;;;;110.67;86.67;;;;;-0.11;86.11;101574.78;6277571;20;3693054;-47
2022/03/18 03:43:16;;;;;;;;;113.00;87.67;;;;;0.13;85.34;101579.47;6279287;20;3688797;-47
2022/03/18 03:45:46;;;;;;;;;114.33;91.33;;;;;-0.20;85.59;101579.97;6278773;20;3709602;-48
2022/03/18 03:48:14;;;;;;;;;73.00;57.00;;;;;0.09;85.31;101582.97;6279631;20;2879440;-49
2022/03/18 03:50:44;;;;;;;;;109.67;89.00;;;;;-0.28;84.64;101577.22;6274814;20;3704570;-50
2022/03/18 03:53:14;;;;;;;;;115.67;92.33;;;;;-0.45;84.75;101585.81;6278499;20;3698304;-48
2022/03/18 03:55:43;;;;;;;;;111.67;87.67;;;;;-0.31;84.59;101590.38;6279260;20;3693983;-47
2022/03/18 03:58:13;;;;;;;;;107.67;87.00;;;;;-0.71;85.71;101592.44;6280538;20;3681611;-46
2022/03/18 04:00:43;;;;;;;;;106.33;85.00;;;;;-0.44;84.58;101597.25;6277334;20;3689917;-47
2022/03/18 04:03:13;;;;;;;;;108.67;85.67;;;;;-0.39;85.17;101599.97;6310844;20;3690892;-49
2022/03/18 04:05:43;;;;;;;;;112.00;92.00;;;;;-0.45;84.79;101601.63;6277117;20;3701289;-47
2022/03/18 04:08:13;;;;;;;;;118.00;97.00;;;;;-0.60;85.30;101600.53;6280547;20;3687816;-46
2022/03/18 04:10:43;;;;;;;;;116.33;98.67;;;;;-0.63;85.75;101601.38;6278907;20;3682536;-46
2022/03/18 04:13:13;;;;;;;;;115.00;96.67;;;;;-0.41;85.13;101613.13;6277665;20;3698770;-46
2022/03/18 04:15:42;;;;;;;;;100.33;81.33;;;;;-0.23;84.74;101610.72;6281872;20;3651289;-45
2022/03/18 04:18:12;;;;;;;;;122.67;91.33;;;;;-0.28;84.29;101611.53;6312268;20;3706539;-47
2022/03/18 04:20:42;;;;;;;;;117.67;91.67;;;;;-0.54;85.09;101614.69;6276008;20;3697636;-48
2022/03/18 04:23:12;;;;;;;;;113.33;87.33;;;;;-0.55;85.79;101612.91;6280939;20;3695079;-48
2022/03/18 04:25:42;;;;;;;;;116.67;95.33;;;;;-0.19;85.83;101616.94;6287053;20;3709656;-52
2022/03/18 04:28:12;;;;;;;;;113.67;88.33;;;;;-0.29;85.23;101626.50;6289961;20;3693573;-51
2022/03/18 04:30:41;;;;;;;;;110.33;84.67;;;;;0.19;83.49;101622.72;6286630;20;3691885;-48
2022/03/18 04:33:11;;;;;;;;;113.67;92.00;;;;;0.01;83.64;101625.13;6286637;20;3688858;-50
2022/03/18 04:35:42;;;;;;;;;118.50;89.25;;;;;-0.34;84.60;101633.47;6289318;20;3714799;-49
2022/03/18 04:38:11;;;;;;;;;109.33;84.33;;;;;-0.03;83.65;101633.84;6320102;20;3678449;-48
2022/03/18 04:40:41;;;;;;;;;116.67;91.67;;;;;-0.26;83.66;101639.72;6285134;20;3700633;-50
2022/03/18 04:43:12;;;;;;;;;124.00;99.33;;;;;-0.68;84.15;101635.59;6288890;20;3699236;-53
2022/03/18 04:45:41;;;;;;;;;113.67;87.33;;;;;-0.48;83.51;101642.91;6289295;20;3691913;-49
2022/03/18 04:48:11;;;;;;;;;114.33;95.67;;;;;-0.43;83.60;101646.50;6285149;20;3691967;-48
2022/03/18 04:50:41;;;;;;;;;112.67;91.00;;;;;-0.34;83.81;101645.75;6285962;20;3700255;-48
2022/03/18 04:53:11;;;;;;;;;109.33;85.67;;;;;-0.16;81.97;101650.41;6288530;20;3692987;-48
2022/03/18 04:55:40;;;;;;;;;109.33;88.67;;;;;-0.38;82.46;101660.66;6289857;20;3698499;-48
2022/03/18 04:58:10;;;;;;;;;111.00;92.33;;;;;-0.28;83.29;101659.94;6288111;20;3691952;-49
2022/03/18 05:00:39;;;;;;;;;113.00;78.00;;;;;0.02;81.57;101666.50;6287144;20;2818991;-48
2022/03/18 05:03:11;;;;;;;;;106.33;84.33;;;;;-0.25;81.07;101667.00;6288850;20;3675216;-49
2022/03/18 05:05:42;;;;;;;;;110.33;88.33;;;;;-0.27;83.19;101672.25;6287079;20;3698131;-54
2022/03/18 05:08:12;;;;;;;;;103.33;75.67;;;;;-0.13;82.21;101667.19;6289409;20;3675248;-50
2022/03/18 05:10:42;;;;;;;;;110.33;85.67;;;;;-0.08;81.72;101680.44;6319267;20;3688756;-52
2022/03/18 05:13:12;;;;;;;;;110.00;87.00;;;;;-0.08;81.43;101680.44;6288312;20;3698124;-50
2022/03/18 05:15:42;;;;;;;;;145.33;116.33;;;;;-0.01;80.80;101684.94;6287605;20;3714837;-53
2022/03/18 05:18:12;;;;;;;;;105.67;88.33;;;;;-0.02;80.97;101693.75;6287759;20;3681625;-49
2022/03/18 05:20:41;;;;;;;;;103.00;77.33;;;;;0.09;80.20;101694.78;6317967;20;3663786;-52
2022/03/18 05:23:11;;;;;;;;;103.33;80.67;;;;;0.04;80.13;101696.47;6319092;20;3679622;-53
2022/03/18 05:25:41;;;;;;;;;125.33;94.33;;;;;0.10;79.69;101700.94;6317627;20;3687698;-50
2022/03/18 05:28:11;;;;;;;;;85.67;66.67;;;;;-0.18;80.03;101690.00;6286603;20;2895158;-52
2022/03/18 05:30:40;;;;;;;;;113.00;83.33;;;;;0.06;79.91;101699.13;6314196;20;3693969;-49
2022/03/18 05:33:10;;;;;;;;;113.67;90.00;;;;;-0.11;79.59;101712.06;6287183;20;3698128;-47
2022/03/18 05:35:41;;;;;;;;;106.33;80.33;;;;;0.08;80.72;101714.13;6287273;20;3680550;-47
2022/03/18 05:38:10;;;;;;;;;102.33;74.67;;;;;0.22;79.46;101707.28;6288274;20;3663869;-47
2022/03/18 05:40:39;;;;;;;;;23.25;0.00;;;;;0.53;77.75;101712.06;6331814;20;1834684;-47
2022/03/18 05:43:09;;;;;;;;;101.67;80.33;;;;;0.57;79.13;101714.75;6319729;20;3681457;-46
2022/03/18 05:45:42;;;;;;;;;101.00;73.67;;;;;0.30;80.01;101714.41;6311100;20;3681650;-48
2022/03/18 05:48:12;;;;;;;;;104.33;81.67;;;;;0.60;79.60;101717.44;6315305;20;3688878;-48
2022/03/18 05:50:42;;;;;;;;;137.00;109.00;;;;;0.99;78.12;101724.03;6283236;20;3712947;-46
2022/03/18 05:53:13;;;;;;;;;234.00;178.00;;;;;0.99;77.00;101728.44;6283102;20;3720203;-52
2022/03/18 05:58:31;;;;;;;;;104.67;88.33;;;;;0.56;76.09;101723.56;6284110;20;3674382;-46
2022/03/18 06:01:01;;;;;;;;;96.33;72.67;;;;;1.25;75.67;101736.66;6285009;20;3655438;-46
2022/03/18 06:03:33;;;;;;;;;91.67;69.67;;;;;1.13;76.20;101741.81;6318067;20;3660631;-45
2022/03/18 06:06:04;;;;;;;;;91.33;71.00;;;;;1.12;76.46;101740.94;6318177;20;2888987;-48
2022/03/18 06:14:10;;;;;;;;;89.33;65.67;;;;;1.91;71.93;101756.63;6317957;20;3654391;-48
2022/03/18 06:16:40;;;;;;;;;88.33;60.67;;;;;2.01;70.10;101767.31;6317988;20;3662717;-49
2022/03/18 06:19:10;;;;;;;;;82.33;58.00;;;;;2.00;69.58;101755.78;6314760;20;3659587;-51
2022/03/18 06:21:41;;;;;;;;;81.00;60.33;;;;;1.97;69.06;101764.63;6316851;20;2894113;-50
2022/03/18 06:24:14;;;;;;;;;147.50;118.00;;;;;2.50;67.44;101762.28;6318391;20;3711684;-50
2022/03/18 06:26:44;;;;;;;;;146.00;121.50;;;;;2.93;66.73;101767.78;6284973;20;4490882;-49
2022/03/18 06:29:15;;;;;;;;;110.67;92.33;;;;;2.70;66.04;101771.22;6282370;20;3690967;-48
2022/03/18 06:31:44;;;;;;;;;81.67;63.00;;;;;2.00;66.47;101770.81;6284715;20;3636720;-52
2022/03/18 06:34:14;;;;;;;;;82.00;63.67;;;;;2.32;65.69;101771.03;6318198;20;2886852;-48
2022/03/18 06:36:45;;;;;;;;;90.33;64.33;;;;;2.54;65.19;101774.69;6318138;20;3666925;-48
2022/03/18 06:39:14;;;;;;;;;65.67;50.00;;;;;2.58;63.52;101782.66;6283027;20;2873197;-48
2022/03/18 06:41:42;;;;;;;;;64.00;49.50;;;;;2.69;63.22;101780.06;6314441;20;2503465;-50
2022/03/18 06:44:11;;;;;;;;;61.00;50.00;;;;;2.75;63.43;101785.38;6283772;20;2861801;-48
2022/03/18 06:46:40;;;;;;;;;51.00;40.00;;;;;2.52;62.77;101787.03;6281420;20;2492969;-54
2022/03/18 06:49:08;;;;;;;;;40.00;32.50;;;;;2.69;63.78;101785.38;6280301;20;2481507;-49
2022/03/18 06:51:37;;;;;;;;;46.50;39.50;;;;;2.69;63.56;101793.31;6284968;20;2860821;-51
2022/03/18 06:54:07;;;;;;;;;47.67;36.00;;;;;2.53;62.57;101799.44;6284741;20;3612740;-52
2022/03/18 06:56:38;;;;;;;;;50.00;41.00;;;;;3.15;62.72;101805.88;6318515;20;2863797;-49
2022/03/18 06:59:08;;;;;;;;;52.33;39.67;;;;;3.36;61.62;101791.78;6285733;20;3640850;-48
2022/03/18 07:01:37;;;;;;;;;34.00;30.00;;;;;3.15;60.81;101801.44;6319311;20;2851373;-51
2022/03/18 07:04:06;;;;;;;;;39.67;33.33;;;;;3.76;60.36;101808.63;6288453;20;2860678;-49
2022/03/18 07:06:36;;;;;;;;;41.67;36.33;;;;;3.47;59.33;101803.28;6316321;20;2870158;-51
2022/03/18 07:09:04;;;;;;;;;33.50;26.50;;;;;3.44;57.12;101813.91;6311662;20;2500309;-53
2022/03/18 07:11:33;;;;;;;;;44.00;36.00;;;;;3.53;58.61;101808.63;6285953;20;2862749;-46
2022/03/18 07:14:02;;;;;;;;;48.67;43.00;;;;;2.86;58.54;101810.19;6286153;20;2873158;-52
2022/03/18 07:19:20;;;;;;;;;50.33;40.67;;;;;3.30;57.70;101817.44;6317502;20;2875308;-48
2022/03/18 07:21:49;;;;;;;;;41.50;39.00;;;;;3.70;57.52;101822.81;6314328;20;2859617;-50
2022/03/18 07:24:18;;;;;;;;;33.00;30.50;;;;;3.44;56.86;101829.84;6286761;20;2858571;-46
2022/03/18 07:26:46;;;;;;;;;29.67;26.67;;;;;3.21;58.39;101821.81;6285655;20;3582511;-50
2022/03/18 07:29:15;;;;;;;;;38.50;32.50;;;;;3.56;56.79;101835.19;6286445;20;2864894;-46
2022/03/18 07:31:44;;;;;;;;;37.50;33.50;;;;;3.24;56.99;101835.13;6283207;20;2856715;-46
2022/03/18 07:34:13;;;;;;;;;39.50;29.00;;;;;3.80;56.50;101839.66;6283820;20;2861831;-48
2022/03/18 07:36:42;;;;;;;;;39.33;36.00;;;;;3.44;57.12;101830.72;6283309;20;2871195;-50
2022/03/18 07:39:11;;;;;;;;;37.50;35.00;;;;;3.90;56.31;101838.78;6314677;20;2861729;-50
2022/03/18 07:41:40;;;;;;;;;35.00;33.00;;;;;4.34;54.69;101839.63;6286030;20;2856557;-50
2022/03/18 07:44:09;;;;;;;;;36.00;33.00;;;;;4.65;54.17;101843.13;6285661;20;2856501;-50
2022/03/18 07:46:38;;;;;;;;;36.50;35.50;;;;;4.34;55.62;101844.94;6282081;20;2867952;-49
2022/03/18 07:49:06;;;;;;;;;33.50;31.00;;;;;3.67;55.38;101853.81;6285624;20;2851289;-47
2022/03/18 07:51:35;;;;;;;;;46.50;40.00;;;;;4.16;55.58;101852.06;6285529;20;2864848;-50
2022/03/18 07:54:04;;;;;;;;;38.00;33.00;;;;;3.82;55.40;101852.91;6285584;20;2859797;-48
2022/03/18 07:56:34;;;;;;;;;50.00;37.67;;;;;3.86;56.15;101860.03;6282204;20;2880529;-49
2022/03/18 07:59:04;;;;;;;;;47.00;38.33;;;;;4.34;57.07;101858.25;6316902;20;2878475;-48
2022/03/18 08:01:35;;;;;;;;;52.67;41.67;;;;;4.79;53.66;101857.28;6316512;20;3612798;-48
2022/03/18 08:04:04;;;;;;;;;45.00;36.00;;;;;5.00;55.80;101864.34;6315537;20;2759701;-48
2022/03/18 08:06:33;;;;;;;;;46.00;35.00;;;;;4.27;54.50;101872.47;6312911;20;2872623;-47
2022/03/18 08:09:04;;;;;;;;;49.67;39.00;;;;;5.51;54.26;101874.75;6283509;20;3610676;-46
2022/03/18 08:11:34;;;;;;;;;69.33;53.67;;;;;5.31;54.56;101872.16;6315877;20;3619000;-48
2022/03/18 08:14:03;;;;;;;;;62.00;50.00;;;;;5.70;53.24;101883.50;6314921;20;2864811;-47
2022/03/18 08:16:31;;;;;;;;;417.00;316.50;;;;;5.18;54.09;101881.09;6279353;20;1979505;-48
2022/03/18 08:19:00;;;;;;;;;57.00;44.00;;;;;5.52;53.96;101881.84;6280799;20;2804412;-47
2022/03/18 08:21:32;;;;;;;;;42.50;38.00;;;;;5.43;54.45;101888.09;6281718;20;2848149;-54
2022/03/18 08:24:02;;;;;;;;;74.00;60.50;;;;;5.96;53.34;101890.50;6284722;20;2854421;-49
2022/03/18 08:26:34;;;;;;;;;53.00;44.00;;;;;5.83;53.51;101887.88;6284363;20;2861794;-48
2022/03/18 08:29:07;;;;;;;;;59.00;46.00;;;;;6.36;51.87;101889.28;6282416;20;2847124;-48
2022/03/18 08:31:37;;;;;;;;;57.33;41.33;;;;;6.18;52.67;101892.09;6285833;20;2881666;-47
2022/03/18 08:34:06;;;;;;;;;45.50;42.00;;;;;6.07;52.47;101892.19;6315346;20;2854481;-48
2022/03/18 08:36:35;;;;;;;;;50.00;40.00;;;;;6.03;53.62;101894.88;6286383;20;2875345;-48
2022/03/18 08:39:05;;;;;;;;;45.33;37.33;;;;;5.81;53.22;101900.31;6312244;20;2857692;-49
2022/03/18 08:41:36;;;;;;;;;36.50;33.50;;;;;5.68;53.61;101895.97;6317270;20;2852364;-52
2022/03/18 08:44:05;;;;;;;;;42.50;39.00;;;;;5.73;52.57;101897.69;6284390;20;2850493;-48
2022/03/18 08:46:34;;;;;;;;;50.67;41.00;;;;;6.52;50.51;101898.03;6283559;20;2874298;-53
2022/03/18 08:49:04;;;;;;;;;44.00;36.33;;;;;5.40;52.71;101898.78;6312810;20;2850272;-52
2022/03/18 08:51:34;;;;;;;;;43.33;37.33;;;;;6.86;50.75;101904.81;6314422;20;2854868;-52
2022/03/18 08:54:04;;;;;;;;;61.33;40.67;;;;;6.99;51.02;101895.78;6315873;20;3647079;-52
2022/03/18 08:56:35;;;;;;;;;49.00;40.00;;;;;7.70;49.24;101902.00;6314129;20;2860172;-48
2022/03/18 08:59:06;;;;;;;;;57.00;38.67;;;;;8.39;48.20;101910.78;6318724;20;3637785;-53
2022/03/18 09:01:37;;;;;;;;;37.67;33.33;;;;;7.68;48.44;101903.78;6282738;20;2863511;-49
2022/03/18 09:04:06;;;;;;;;;53.33;41.67;;;;;7.83;48.17;101908.06;6316823;20;3624239;-48
2022/03/18 09:06:35;;;;;;;;;47.50;38.50;;;;;7.92;49.38;101915.06;6284493;20;2872272;-49
2022/03/18 09:09:05;;;;;;;;;48.67;40.00;;;;;8.69;47.56;101913.81;6293537;20;3622159;-53
2022/03/18 09:11:33;;;;;;;;;53.00;45.00;;;;;8.73;46.42;101918.22;6288288;20;2850273;-49
2022/03/18 09:14:03;;;;;;;;;48.00;39.00;;;;;8.60;47.58;101916.69;6287648;20;2868064;-50
2022/03/18 09:16:36;;;;;;;;;43.67;38.67;;;;;8.93;47.53;101925.91;6320311;20;2852502;-51
2022/03/18 09:19:07;;;;;;;;;47.00;38.67;;;;;8.41;48.85;101930.38;6317905;20;3606578;-51
2022/03/18 09:21:36;;;;;;;;;48.50;41.50;;;;;8.59;49.54;101922.97;6290079;20;2865927;-51
2022/03/18 09:24:06;;;;;;;;;46.67;37.33;;;;;8.84;47.67;101915.34;6289702;20;3610677;-52
2022/03/18 09:26:35;;;;;;;;;47.67;40.00;;;;;8.80;48.20;101919.91;6324106;20;3609660;-48
2022/03/18 09:29:04;;;;;;;;;49.33;39.00;;;;;7.60;50.04;101920.84;6284718;20;3635693;-52
2022/03/18 09:31:33;;;;;;;;;54.67;44.00;;;;;8.61;48.85;101926.47;6321660;20;3595025;-49
2022/03/18 09:34:03;;;;;;;;;48.33;40.33;;;;;8.90;47.20;101926.84;6286493;20;2870667;-50
2022/03/18 09:36:33;;;;;;;;;46.00;37.00;;;;;9.30;46.74;101925.19;6320692;20;3611731;-49
2022/03/18 09:39:03;;;;;;;;;45.00;38.67;;;;;8.85;48.09;101928.72;6319653;20;3583554;-50
2022/03/18 09:41:33;;;;;;;;;47.33;39.67;;;;;8.61;48.05;101921.13;6321477;20;3613777;-50
2022/03/18 09:44:02;;;;;;;;;57.00;45.67;;;;;9.17;47.47;101924.56;6319150;20;2857578;-49
2022/03/18 09:46:32;;;;;;;;;56.50;46.00;;;;;8.28;49.04;101929.66;6317299;20;2867066;-49
2022/03/18 09:49:06;;;;;;;;;56.67;47.00;;;;;8.83;49.48;101933.22;6284836;20;2858652;-53
2022/03/18 09:51:36;;;;;;;;;52.67;42.00;;;;;9.10;48.05;101925.56;6318762;20;2867985;-52
2022/03/18 09:54:17;;;;;;;;;50.50;42.50;;;;;9.64;47.00;101936.09;6320395;20;2861729;-53
2022/03/18 09:56:48;;;;;;;;;53.00;42.00;;;;;9.41;47.11;101940.13;6289810;20;2487792;-52
2022/03/18 09:59:17;;;;;;;;;42.33;36.00;;;;;9.73;49.02;101935.88;6291208;20;3606568;-49
2022/03/18 10:01:47;;;;;;;;;56.67;42.00;;;;;9.10;49.47;101937.19;6288525;20;3621161;-50
2022/03/18 10:04:16;;;;;;;;;54.50;45.00;;;;;9.28;50.88;101933.25;6318191;20;2845108;-47
2022/03/18 10:06:45;;;;;;;;;63.33;50.00;;;;;9.58;49.52;101936.22;6287359;20;3621064;-52
2022/03/18 10:09:15;;;;;;;;;58.33;46.33;;;;;10.06;49.07;101938.75;6316857;20;2858743;-51
2022/03/18 10:11:47;;;;;;;;;50.33;39.00;;;;;9.22;51.65;101936.94;6317312;20;3625244;-48
2022/03/18 10:14:24;;;;;;;;;58.00;46.00;;;;;8.67;52.82;101939.78;6318617;20;2860721;-50
2022/03/18 10:16:55;;;;;;;;;58.67;47.33;;;;;9.58;51.73;101938.91;6319431;20;2855576;-52
2022/03/18 10:19:25;;;;;;;;;58.67;45.33;;;;;9.29;53.41;101935.00;6315671;20;2866020;-49
2022/03/18 10:22:06;;;;;;;;;55.33;43.00;;;;;9.41;52.93;101936.56;6319404;20;2863938;-49
2022/03/18 10:24:39;;;;;;;;;61.33;47.33;;;;;9.35;52.21;101934.03;6316648;20;3629539;-49
2022/03/18 10:27:19;;;;;;;;;57.00;47.00;;;;;9.88;51.90;101940.03;6315155;20;2863892;-51
2022/03/18 10:29:54;;;;;;;;;60.33;46.00;;;;;10.27;52.35;101943.63;6317514;20;3631558;-49
2022/03/18 10:32:27;;;;;;;;;56.67;46.00;;;;;9.87;53.98;101944.53;6318048;20;3616902;-48
2022/03/18 10:37:50;;;;;;;;;56.67;44.33;;;;;10.69;51.05;101940.81;6318414;20;3616001;-47
2022/03/18 10:40:36;;;;;;;;;56.33;45.00;;;;;10.24;51.79;101946.38;6315111;20;3600338;-50
2022/03/18 10:43:08;;;;;;;;;59.00;46.00;;;;;10.60;51.50;101941.03;6320101;20;3623170;-49
2022/03/18 10:45:37;;;;;;;;;59.33;46.67;;;;;9.74;52.20;101948.41;6318251;20;3624607;-48
2022/03/18 10:48:17;;;;;;;;;56.67;44.33;;;;;10.18;52.78;101937.56;6316953;20;3602442;-50
2022/03/18 10:51:07;;;;;;;;;62.33;49.33;;;;;9.59;52.44;101938.88;6316158;20;3635742;-52
2022/03/18 10:53:37;;;;;;;;;53.00;42.00;;;;;9.84;51.69;101933.84;6317873;20;2853467;-51
2022/03/18 10:56:08;;;;;;;;;59.67;47.33;;;;;9.94;50.35;101933.66;6286239;20;2874235;-52
2022/03/18 10:58:39;;;;;;;;;58.00;47.00;;;;;9.81;49.89;101927.66;6315798;20;2864076;-49
2022/03/18 11:01:09;;;;;;;;;55.00;45.00;;;;;10.47;49.88;101939.56;6316249;20;2848161;-48
2022/03/18 11:03:39;;;;;;;;;51.33;38.00;;;;;10.90;48.29;101939.34;6285153;20;2877459;-48
2022/03/18 11:06:08;;;;;;;;;50.50;40.00;;;;;10.85;47.42;101940.38;6314445;20;2847153;-52
2022/03/18 11:08:49;;;;;;;;;56.67;45.33;;;;;11.19;47.49;101935.00;6284324;20;2862992;-47
2022/03/18 11:11:22;;;;;;;;;53.00;42.67;;;;;11.70;46.03;101936.22;6317046;20;2858668;-48
2022/03/18 11:14:02;;;;;;;;;53.33;45.00;;;;;9.98;49.50;101929.97;6316434;20;3598240;-52
2022/03/18 11:16:38;;;;;;;;;63.67;49.00;;;;;10.52;48.53;101929.59;6317944;20;2867090;-45
2022/03/18 11:19:14;;;;;;;;;53.33;42.67;;;;;11.03;47.36;101925.56;6315288;20;2849207;-46
2022/03/18 11:21:46;;;;;;;;;59.33;46.33;;;;;11.23;47.36;101925.03;6315521;20;3617936;-46
2022/03/18 11:24:22;;;;;;;;;59.33;47.67;;;;;11.36;46.27;101916.56;6315759;20;3607538;-47
2022/03/18 11:26:53;;;;;;;;;58.00;45.33;;;;;11.93;46.10;101930.13;6315623;20;3627488;-46
2022/03/18 11:29:26;;;;;;;;;57.00;45.67;;;;;10.65;46.15;101925.66;6315506;20;3621054;-47